To NAV CANADA Home Page Login to a new session Search on AWWS site Feedback and Comments Disclaimer Vers la page française équivalente Tips FAQ What's new on the site To the Forecasts and Observations / NOTAM section To "File a Flight Plan" website Publications and other links Update of the User's profile FIC Telephone Numbers My Weather Data Folder Route Weather Data Regional Weather Data Local Weather Data To the Forecasts and Observations / NOTAM section
Request Generated 02/27/2015 at 13:06:33 UTC . Weather information available at that time is displayed.

METAR/TAF

CALGARY/SPRINGBANK/AB    (show WxCam)

METAR CYBW 271300Z AUTO 34012KT 9SM -SN BKN018 BKN022 OVC085 M09/M12
A3002 RMK SLP243=
SPECI CYBW 271255Z AUTO 35010G17KT 9SM -SN BKN018 OVC085 M09/M12
A3002 RMK SLP242=
SPECI CYBW 271252Z AUTO 35009G17KT 9SM BKN018 OVC085 M09/M12 A3002
RMK SLP242=
SPECI CYBW 271248Z AUTO 35013G18KT 9SM -SN BKN018 OVC085 M09/M12
A3002 RMK SLP242=
SPECI CYBW 271241Z AUTO 35012G18KT 9SM -SN FEW018 OVC085 M09/M12
A3001 RMK SLP241=
SPECI CYBW 271209Z AUTO 34013G18KT 9SM SCT019 BKN065 OVC077 M09/M12
A3001 RMK SLP238=
METAR CYBW 271200Z AUTO 34014G19KT 9SM BKN019 OVC080 M09/M12 A3000
RMK SLP236=
METAR CYBW 271100Z AUTO 33011KT 9SM OVC019 M09/M12 A3000 RMK SLP234=

TAF CYBW 271238Z 2713/2801 34012G22KT 3SM -SN BKN020 OVC060 TEMPO
2713/2801 P6SM NSW SCT020 OVC060
RMK FCST BASED ON AUTO OBS. NXT FCST BY 271800Z=
Your time UTC time
Weather data provided by Environment Canada and NAV CANADA